Time;durP1;ratioP1;P1;durP2;ratioP2;P2;SDS_P1;SDS_P2;PMS_P1;PMS_P2;Temp;Humidity;BMP_temperature;BMP_pressure;BME280_temperature;BME280_humidity;BME280_pressure;Samples;Min_cycle;Max_cycle;Signal;HPM_P1;HPM_P2
2021/07/30 00:01:18;;;;;;;14.77;10.10;;;;;;;21.10;97.19;98434.00;4714774;30;20041;-58
2021/07/30 00:03:44;;;;;;;15.43;10.07;;;;;;;21.15;97.08;98437.06;4712490;30;20110;-58
2021/07/30 00:06:09;;;;;;;15.88;10.40;;;;;;;21.18;97.99;98435.94;4713318;30;20045;-58
2021/07/30 00:08:35;;;;;;;15.32;10.80;;;;;;;21.18;99.70;98435.94;4709641;30;20638;-57
2021/07/30 00:11:02;;;;;;;18.55;10.68;;;;;;;21.17;100.00;98434.28;4712168;30;20065;-57
2021/07/30 00:13:27;;;;;;;14.35;8.43;;;;;;;21.17;100.00;98432.47;4714019;30;20053;-58
2021/07/30 00:15:54;;;;;;;17.00;9.88;;;;;;;21.18;100.00;98431.50;4715595;30;20049;-58
2021/07/30 00:18:20;;;;;;;16.40;10.38;;;;;;;21.17;100.00;98426.34;4686238;30;20077;-57
2021/07/30 00:20:46;;;;;;;12.70;8.80;;;;;;;21.18;100.00;98420.94;4716000;30;20095;-57
2021/07/30 00:23:11;;;;;;;14.45;9.68;;;;;;;21.18;100.00;98423.56;4713158;30;20049;-58
2021/07/30 00:25:37;;;;;;;13.02;9.48;;;;;;;21.18;100.00;98420.09;4715370;30;20057;-58
2021/07/30 00:28:03;;;;;;;14.75;9.73;;;;;;;21.16;100.00;98422.88;4708477;30;20057;-59
2021/07/30 00:30:28;;;;;;;13.75;9.50;;;;;;;21.17;100.00;98424.53;4712887;30;20433;-60
2021/07/30 00:32:54;;;;;;;17.35;9.73;;;;;;;21.16;100.00;98425.53;4708583;30;20053;-57
2021/07/30 00:35:20;;;;;;;13.57;9.45;;;;;;;21.10;100.00;98421.63;4709276;30;20053;-57
2021/07/30 00:37:45;;;;;;;17.77;9.95;;;;;;;21.08;100.00;98431.53;4711981;30;20064;-59
2021/07/30 00:40:12;;;;;;;14.63;9.27;;;;;;;21.04;100.00;98427.50;4712309;30;20056;-58
2021/07/30 00:42:48;;;;;;;15.60;9.93;;;;;;;20.99;100.00;98418.38;4716182;30;20076;-58
2021/07/30 00:45:13;;;;;;;15.13;9.23;;;;;;;20.96;100.00;98421.31;4717358;30;20474;-58
2021/07/30 00:47:39;;;;;;;12.52;8.80;;;;;;;20.99;100.00;98431.56;4712466;30;20057;-58
2021/07/30 00:50:05;;;;;;;12.20;8.52;;;;;;;20.98;100.00;98428.13;4705156;30;20055;-59
2021/07/30 00:52:30;;;;;;;12.63;9.15;;;;;;;20.98;100.00;98433.41;4698956;30;20071;-59
2021/07/30 00:54:56;;;;;;;14.07;9.30;;;;;;;20.98;100.00;98436.06;4715340;30;20057;-58
2021/07/30 00:57:23;;;;;;;13.35;8.85;;;;;;;20.98;100.00;98430.78;4713505;30;20056;-59
2021/07/30 00:59:50;;;;;;;13.63;9.32;;;;;;;21.00;100.00;98439.38;4703952;30;20081;-58
2021/07/30 01:02:17;;;;;;;14.43;8.38;;;;;;;21.01;100.00;98433.09;4684046;30;20067;-59
2021/07/30 01:04:43;;;;;;;11.25;8.13;;;;;;;21.02;100.00;98436.59;4705046;30;20132;-59
2021/07/30 01:07:09;;;;;;;14.38;9.13;;;;;;;21.02;100.00;98437.41;4704624;30;21061;-59
2021/07/30 01:09:34;;;;;;;11.65;8.95;;;;;;;21.02;100.00;98429.50;4708941;30;20048;-58
2021/07/30 01:12:02;;;;;;;12.45;8.85;;;;;;;21.05;100.00;98431.81;4694149;30;20057;-58
2021/07/30 01:17:25;;;;;;;11.32;8.77;;;;;;;21.07;100.00;98424.59;4856721;24;20077;-58
2021/07/30 01:19:57;;;;;;;19.55;10.77;;;;;;;21.06;100.00;98416.78;4698045;30;20142;-59
2021/07/30 01:22:35;;;;;;;14.30;9.63;;;;;;;21.05;100.00;98428.34;4687908;30;20053;-59
2021/07/30 01:25:00;;;;;;;17.20;10.80;;;;;;;21.01;100.00;98413.78;4682980;30;20146;-59
2021/07/30 01:27:26;;;;;;;20.63;11.32;;;;;;;21.01;100.00;98422.53;4700754;30;20045;-59
2021/07/30 01:29:52;;;;;;;17.45;11.00;;;;;;;21.01;100.00;98422.53;4700584;30;20521;-60
2021/07/30 01:32:19;;;;;;;27.98;15.82;;;;;;;21.04;100.00;98418.78;4700259;30;20403;-58
2021/07/30 01:34:45;;;;;;;18.42;11.68;;;;;;;21.05;100.00;98421.25;4701077;30;20047;-58
2021/07/30 01:37:11;;;;;;;21.90;11.95;;;;;;;21.08;100.00;98415.69;4695495;30;20064;-58
2021/07/30 01:39:37;;;;;;;16.02;10.80;;;;;;;21.11;100.00;98423.31;4692084;30;20421;-59
2021/07/30 01:42:04;;;;;;;15.70;10.77;;;;;;;21.12;100.00;98419.69;4702677;30;20140;-59
2021/07/30 01:44:29;;;;;;;16.48;9.45;;;;;;;21.14;99.99;98420.38;4699639;30;20060;-58
2021/07/30 01:46:55;;;;;;;18.45;10.95;;;;;;;21.17;100.00;98415.78;5139264;24;20057;-58
2021/07/30 01:49:21;;;;;;;15.13;9.52;;;;;;;21.16;100.00;98412.31;4693253;30;20220;-59
2021/07/30 01:51:46;;;;;;;12.82;8.98;;;;;;;21.19;100.00;98413.84;4692629;30;20052;-59
2021/07/30 01:54:15;;;;;;;16.92;9.80;;;;;;;21.20;100.00;98411.00;4693156;30;20037;-58
2021/07/30 01:56:44;;;;;;;;;;;;;;;21.20;100.00;98418.16;4694684;30;20148;-58
2021/07/30 01:59:10;;;;;;;18.35;9.98;;;;;;;21.18;100.00;98417.44;4692862;30;19922;-59
2021/07/30 02:01:36;;;;;;;13.82;10.10;;;;;;;21.18;100.00;98417.44;4692933;30;20095;-59
2021/07/30 02:04:02;;;;;;;17.63;10.13;;;;;;;21.18;100.00;98420.94;4697522;30;20425;-59
2021/07/30 02:06:27;;;;;;;14.65;9.98;;;;;;;21.18;100.00;98428.84;4697468;30;20052;-58
2021/07/30 02:08:53;;;;;;;14.93;10.27;;;;;;;21.19;100.00;98427.88;4695297;30;20049;-58
2021/07/30 02:11:19;;;;;;;14.75;9.85;;;;;;;21.21;100.00;98430.34;4690413;30;20057;-58
2021/07/30 02:16:28;;;;;;;12.98;10.00;;;;;;;21.26;100.00;98428.94;4698095;30;20099;-58
2021/07/30 02:18:54;;;;;;;18.17;11.90;;;;;;;21.28;100.00;98429.63;4689522;30;20482;-58
2021/07/30 02:21:20;;;;;;;17.05;10.93;;;;;;;21.29;99.44;98428.66;4697567;30;20548;-59
2021/07/30 02:23:46;;;;;;;13.25;10.13;;;;;;;21.34;98.62;98429.03;4696936;30;20432;-59
2021/07/30 02:26:12;;;;;;;12.05;9.52;;;;;;;21.37;98.21;98420.78;4694205;30;20049;-59
2021/07/30 02:28:38;;;;;;;16.50;10.90;;;;;;;21.40;97.45;98417.00;4694147;30;20137;-59
2021/07/30 02:31:03;;;;;;;18.88;10.70;;;;;;;21.44;97.45;98419.19;4676416;30;20140;-60
2021/07/30 02:33:29;;;;;;;14.77;10.82;;;;;;;21.46;98.09;98424.31;4692900;30;20423;-58
2021/07/30 02:35:55;;;;;;;15.85;11.18;;;;;;;21.47;98.43;98421.53;4693195;30;20073;-59
2021/07/30 02:38:20;;;;;;;14.43;10.55;;;;;;;21.50;98.93;98415.13;5127136;25;20065;-59
2021/07/30 02:40:46;;;;;;;14.95;10.52;;;;;;;21.54;98.97;98419.09;4693957;30;20077;-59
2021/07/30 02:43:13;;;;;;;18.75;11.02;;;;;;;21.57;99.54;98416.16;4691873;30;20050;-60
2021/07/30 02:45:38;;;;;;;15.77;11.00;;;;;;;21.60;99.37;98409.72;4691826;30;20053;-59
2021/07/30 02:51:00;;;;;;;16.15;9.95;;;;;;;21.74;97.52;98417.09;4688657;30;20526;-59
2021/07/30 02:53:25;;;;;;;15.43;10.60;;;;;;;21.79;96.00;98412.19;4681470;30;20038;-58
2021/07/30 02:55:51;;;;;;;14.73;10.35;;;;;;;21.83;95.61;98405.59;4680054;30;20505;-59
2021/07/30 02:58:18;;;;;;;17.73;10.18;;;;;;;21.90;94.94;98411.94;4681488;30;20081;-59
2021/07/30 03:00:43;;;;;;;15.05;10.30;;;;;;;21.97;94.08;98405.09;4676360;30;20080;-58
2021/07/30 03:03:09;;;;;;;15.73;10.48;;;;;;;22.03;92.98;98407.13;4674863;30;20053;-59
2021/07/30 03:05:35;;;;;;;14.02;9.98;;;;;;;22.08;92.90;98415.41;4675488;30;20050;-59
2021/07/30 03:10:56;;;;;;;18.38;11.98;;;;;;;22.15;91.75;98419.06;4700314;24;20077;-59
2021/07/30 03:13:22;;;;;;;21.77;12.60;;;;;;;22.18;91.41;98416.13;4702112;30;20049;-58
2021/07/30 03:15:52;;;;;;;19.80;11.60;;;;;;;22.23;91.10;98418.31;4703799;30;20049;-58
2021/07/30 03:18:18;;;;;;;18.10;12.48;;;;;;;22.27;90.94;98417.84;4706743;30;20141;-58
2021/07/30 03:20:43;;;;;;;22.20;12.95;;;;;;;22.32;90.57;98415.53;4715135;30;20201;-58
2021/07/30 03:23:09;;;;;;;19.77;12.23;;;;;;;22.40;90.05;98422.69;4713364;30;20107;-58
2021/07/30 03:25:34;;;;;;;19.52;12.73;;;;;;;22.47;89.74;98420.25;4701155;30;20049;-58
2021/07/30 03:28:00;;;;;;;16.40;12.15;;;;;;;22.54;89.45;98424.75;4709497;30;20842;-59
2021/07/30 03:30:26;;;;;;;19.00;11.88;;;;;;;22.57;89.10;98427.06;4703208;30;20144;-59
2021/07/30 03:32:51;;;;;;;17.83;12.82;;;;;;;22.63;88.46;98430.91;4698398;30;20049;-59
2021/07/30 03:35:17;;;;;;;17.63;12.18;;;;;;;22.69;88.13;98425.81;4707730;30;20133;-59
2021/07/30 03:37:45;;;;;;;17.23;11.23;;;;;;;22.74;86.41;98428.00;4714034;30;20051;-59
2021/07/30 03:40:11;;;;;;;26.95;17.15;;;;;;;22.79;85.41;98426.53;4704295;30;20046;-60
2021/07/30 03:42:37;;;;;;;14.65;11.15;;;;;;;22.88;84.88;98429.22;4701059;30;20481;-58
2021/07/30 03:45:03;;;;;;;14.80;11.80;;;;;;;22.93;84.54;98427.72;4701670;30;20057;-59
2021/07/30 03:47:28;;;;;;;18.10;11.35;;;;;;;22.99;83.88;98424.44;4709194;30;20053;-59
2021/07/30 03:49:54;;;;;;;14.55;10.55;;;;;;;23.06;83.28;98424.63;4703470;30;20502;-59
2021/07/30 03:52:20;;;;;;;17.25;10.73;;;;;;;23.10;82.49;98432.09;4709779;30;20871;-60
2021/07/30 03:54:45;;;;;;;15.88;10.95;;;;;;;23.20;82.17;98429.28;4712315;30;20116;-58
2021/07/30 03:57:11;;;;;;;14.07;10.25;;;;;;;23.29;81.74;98432.81;4710959;30;20053;-58
2021/07/30 03:59:37;;;;;;;14.60;11.20;;;;;;;23.37;81.64;98441.59;4710661;30;20050;-57
2021/07/30 04:02:02;;;;;;;16.80;10.50;;;;;;;23.44;81.41;98441.78;4706354;30;20532;-59
2021/07/30 04:04:28;;;;;;;15.88;10.90;;;;;;;23.50;81.33;98441.97;4694990;30;20524;-60
2021/07/30 04:06:54;;;;;;;11.95;10.15;;;;;;;23.50;80.09;98439.31;4696536;30;20057;-58
2021/07/30 04:09:21;;;;;;;12.73;10.38;;;;;;;23.48;79.46;98437.84;5146297;24;20165;-59
2021/07/30 04:11:47;;;;;;;13.98;10.05;;;;;;;23.46;79.21;98437.16;4709271;30;20053;-59
2021/07/30 04:14:12;;;;;;;14.30;10.85;;;;;;;23.41;79.04;98437.63;4711248;30;20052;-60
2021/07/30 04:16:38;;;;;;;11.25;9.88;;;;;;;23.42;79.18;98443.75;4709717;30;20572;-60
2021/07/30 04:19:04;;;;;;;17.55;11.23;;;;;;;23.38;79.49;98440.63;4705648;30;20045;-61
2021/07/30 04:21:30;;;;;;;18.67;11.75;;;;;;;23.32;79.89;98448.38;4695828;30;20037;-58
2021/07/30 04:23:56;;;;;;;16.90;11.90;;;;;;;23.28;79.79;98442.59;4695258;30;20076;-58
2021/07/30 04:26:22;;;;;;;18.25;11.93;;;;;;;23.13;80.37;98447.66;4674564;30;20633;-59
2021/07/30 04:28:48;;;;;;;14.48;11.52;;;;;;;22.98;81.13;98443.16;4695165;30;20556;-58
2021/07/30 04:31:13;;;;;;;15.25;11.35;;;;;;;23.01;81.80;98448.97;4694560;30;20057;-59
2021/07/30 04:33:39;;;;;;;17.80;12.52;;;;;;;23.00;82.15;98454.44;4693916;30;20052;-60
2021/07/30 04:36:05;;;;;;;19.67;12.80;;;;;;;22.96;83.03;98451.28;4694473;30;20052;-60
2021/07/30 04:38:31;;;;;;;16.80;12.80;;;;;;;23.00;83.21;98449.13;4693834;30;20804;-58
2021/07/30 04:40:56;;;;;;;17.38;11.75;;;;;;;23.03;82.56;98449.63;5131219;24;20058;-59
2021/07/30 04:43:22;;;;;;;15.13;11.80;;;;;;;22.98;82.44;98453.75;4692221;30;20427;-59
2021/07/30 04:45:48;;;;;;;16.55;12.00;;;;;;;22.95;83.01;98460.22;4687703;30;20054;-59
2021/07/30 04:48:13;;;;;;;17.15;12.18;;;;;;;22.88;83.57;98461.84;4692214;30;20050;-58
2021/07/30 04:50:39;;;;;;;15.07;12.05;;;;;;;22.94;83.63;98449.78;4695484;30;20507;-58
2021/07/30 04:53:05;;;;;;;15.73;12.65;;;;;;;23.00;83.42;98455.28;4695321;30;20053;-58
2021/07/30 04:55:31;;;;;;;15.95;12.38;;;;;;;23.03;83.48;98456.78;4693885;30;20084;-59
2021/07/30 04:57:57;;;;;;;18.17;11.57;;;;;;;23.06;83.38;98457.28;4694678;30;20072;-58
2021/07/30 05:00:22;;;;;;;21.33;12.93;;;;;;;23.01;83.38;98450.81;5119672;24;20069;-59
2021/07/30 05:02:52;;;;;;;16.92;12.55;;;;;;;23.01;83.62;98446.34;4694200;30;20104;-59
2021/07/30 05:05:18;;;;;;;16.52;12.48;;;;;;;23.08;83.23;98446.53;4683049;30;20070;-58
2021/07/30 05:07:44;;;;;;;17.70;11.80;;;;;;;23.10;82.54;98449.81;4714956;30;20061;-60
2021/07/30 05:10:10;;;;;;;18.67;12.05;;;;;;;23.16;82.39;98452.66;4714837;30;20052;-59
2021/07/30 05:12:36;;;;;;;20.50;13.90;;;;;;;23.20;82.25;98459.31;4706127;30;20101;-59
2021/07/30 05:15:02;;;;;;;17.60;12.88;;;;;;;23.11;82.81;98454.97;4705250;30;20546;-59
2021/07/30 05:17:27;;;;;;;19.45;13.13;;;;;;;23.18;82.64;98441.91;4716169;30;20429;-59
2021/07/30 05:19:53;;;;;;;19.25;14.13;;;;;;;23.21;82.49;98449.53;4707034;30;20050;-59
2021/07/30 05:22:19;;;;;;;20.77;12.95;;;;;;;23.18;81.99;98449.88;4707322;30;20053;-58
2021/07/30 05:24:44;;;;;;;16.95;13.15;;;;;;;23.12;82.42;98440.72;4710101;30;20061;-57
2021/07/30 05:27:10;;;;;;;22.52;15.05;;;;;;;23.09;82.79;98451.66;4708891;30;20131;-58
2021/07/30 05:29:35;;;;;;;21.23;14.02;;;;;;;23.07;83.28;98458.94;4710958;30;20052;-57
2021/07/30 05:32:03;;;;;;;17.60;13.38;;;;;;;23.07;83.85;98460.75;5121480;24;20066;-58
2021/07/30 05:34:30;;;;;;;20.75;13.85;;;;;;;22.97;84.25;98463.56;4692766;30;20049;-58
2021/07/30 05:36:56;;;;;;;21.63;15.35;;;;;;;22.90;85.02;98461.69;4691483;30;20542;-59
2021/07/30 05:39:21;;;;;;;17.25;13.23;;;;;;;22.77;85.75;98465.63;4675271;30;20668;-57
2021/07/30 05:41:47;;;;;;;22.83;15.38;;;;;;;22.65;86.99;98471.34;4689878;30;20096;-58
2021/07/30 05:44:13;;;;;;;17.20;13.63;;;;;;;22.57;87.81;98474.75;4684458;30;20048;-58
2021/07/30 05:46:39;;;;;;;19.80;13.85;;;;;;;22.55;89.19;98487.34;4665598;30;20093;-58
2021/07/30 05:49:06;;;;;;;22.70;14.95;;;;;;;22.47;90.29;98486.47;4681463;30;20132;-57
2021/07/30 05:51:33;;;;;;;21.50;14.73;;;;;;;22.38;91.69;98489.06;4680600;30;20054;-57
2021/07/30 05:53:59;;;;;;;16.98;12.55;;;;;;;22.31;92.86;98490.66;4685544;30;20148;-62
2021/07/30 05:56:24;;;;;;;18.75;12.95;;;;;;;22.24;94.16;98484.31;4680266;30;20088;-57
2021/07/30 05:58:50;;;;;;;21.80;14.57;;;;;;;21.92;100.00;98492.84;4681350;30;20132;-58
2021/07/30 06:01:16;;;;;;;21.85;15.07;;;;;;;21.55;100.00;98502.75;4681066;30;20425;-57
2021/07/30 06:03:41;;;;;;;20.33;14.25;;;;;;;21.25;100.00;98496.00;4686935;30;20065;-58
2021/07/30 06:06:07;;;;;;;20.92;15.48;;;;;;;21.06;100.00;98504.84;4687480;30;20056;-56
2021/07/30 06:08:33;;;;;;;23.38;15.40;;;;;;;21.00;100.00;98507.25;4682348;30;20137;-60
2021/07/30 06:11:04;;;;;;;24.15;16.02;;;;;;;20.98;100.00;98517.13;4679461;30;20151;-58
2021/07/30 06:13:30;;;;;;;24.92;15.13;;;;;;;20.92;100.00;98521.19;4685683;30;20054;-57
2021/07/30 06:15:56;;;;;;;19.00;13.95;;;;;;;20.79;100.00;98518.03;4693161;30;20060;-57
2021/07/30 06:18:21;;;;;;;18.15;11.80;;;;;;;20.73;100.00;98517.81;4687582;30;20049;-59
2021/07/30 06:20:48;;;;;;;17.90;10.60;;;;;;;20.71;100.00;98510.84;4682694;30;20485;-58
2021/07/30 06:23:13;;;;;;;14.75;10.38;;;;;;;20.69;100.00;98499.59;4680351;30;20053;-59
2021/07/30 06:25:39;;;;;;;15.88;11.95;;;;;;;20.69;100.00;98498.75;4680087;30;20526;-55
2021/07/30 06:28:05;;;;;;;14.45;12.15;;;;;;;20.71;100.00;98487.09;4680433;30;20054;-57
2021/07/30 06:30:31;;;;;;;18.35;13.80;;;;;;;20.77;100.00;98483.03;4664877;30;20050;-56
2021/07/30 06:32:56;;;;;;;15.35;12.85;;;;;;;20.83;100.00;98500.09;4678157;30;20077;-59
2021/07/30 06:35:25;;;;;;;17.42;10.80;;;;;;;20.63;100.00;98499.34;4679829;30;20054;-57
2021/07/30 06:37:50;;;;;;;16.70;12.40;;;;;;;20.50;100.00;98499.69;4678374;30;20054;-55
2021/07/30 06:40:16;;;;;;;20.45;12.10;;;;;;;20.38;100.00;98503.44;4679073;30;20061;-55
2021/07/30 06:42:42;;;;;;;19.10;13.45;;;;;;;20.33;100.00;98492.50;4682416;30;20041;-54
2021/07/30 06:45:08;;;;;;;15.90;11.98;;;;;;;20.35;100.00;98487.91;4680126;30;20170;-57
2021/07/30 06:47:35;;;;;;;18.88;13.02;;;;;;;20.39;100.00;98484.00;4682551;30;20053;-54
2021/07/30 06:50:01;;;;;;;18.45;13.02;;;;;;;20.41;100.00;98483.88;4671017;30;20093;-55
2021/07/30 06:52:26;;;;;;;19.75;13.30;;;;;;;20.39;100.00;98480.53;5111998;25;20120;-57
2021/07/30 06:54:54;;;;;;;27.42;14.63;;;;;;;20.45;100.00;98493.16;4695158;30;20038;-54
2021/07/30 06:57:19;;;;;;;21.92;13.82;;;;;;;20.45;100.00;98493.16;4714459;30;20049;-54
2021/07/30 06:59:45;;;;;;;20.55;13.73;;;;;;;20.29;100.00;98507.75;4683334;30;20472;-53
2021/07/30 07:02:11;;;;;;;19.63;13.32;;;;;;;20.17;100.00;98495.69;4713315;30;20045;-54
2021/07/30 07:04:36;;;;;;;22.20;13.70;;;;;;;20.11;100.00;98490.13;4713746;30;20417;-54
2021/07/30 07:07:03;;;;;;;16.80;12.23;;;;;;;20.06;100.00;98490.56;4713248;30;20443;-59
2021/07/30 07:09:29;;;;;;;27.00;16.20;;;;;;;20.08;100.00;98487.78;4706186;30;20056;-55
2021/07/30 07:11:55;;;;;;;23.80;14.15;;;;;;;20.16;100.00;98493.19;4707614;30;20045;-55
2021/07/30 07:14:20;;;;;;;22.75;14.93;;;;;;;20.18;100.00;98488.59;4713877;30;20410;-53
2021/07/30 07:16:47;;;;;;;24.90;16.17;;;;;;;20.21;100.00;98486.50;4701450;30;20049;-56
2021/07/30 07:19:13;;;;;;;30.63;17.45;;;;;;;20.27;100.00;98479.81;4712051;30;20688;-58
2021/07/30 07:21:39;;;;;;;22.73;14.20;;;;;;;20.31;100.00;98478.59;4709006;30;20072;-54
2021/07/30 07:24:06;;;;;;;24.65;16.13;;;;;;;20.33;100.00;98474.00;4711701;30;20524;-55
2021/07/30 07:26:35;;;;;;;23.95;14.63;;;;;;;20.39;100.00;98480.53;4716501;30;20081;-55
2021/07/30 07:29:00;;;;;;;29.90;17.13;;;;;;;20.41;100.00;98482.03;4715297;30;20128;-56
2021/07/30 07:31:26;;;;;;;25.13;15.10;;;;;;;20.47;100.00;98486.75;4704814;30;20047;-55
2021/07/30 07:33:52;;;;;;;23.55;15.02;;;;;;;20.47;100.00;98481.47;4716061;30;20091;-58
2021/07/30 07:36:17;;;;;;;30.10;17.27;;;;;;;20.53;100.00;98485.34;4716260;30;20476;-57
2021/07/30 07:38:43;;;;;;;26.15;16.52;;;;;;;20.62;100.00;98479.22;4718133;30;20051;-53
2021/07/30 07:41:11;;;;;;;25.40;16.55;;;;;;;20.70;100.00;98476.66;4712727;30;20059;-54
2021/07/30 07:43:37;;;;;;;32.17;18.15;;;;;;;20.79;100.00;98485.50;4713070;30;20074;-54
2021/07/30 07:46:03;;;;;;;27.02;16.08;;;;;;;20.88;100.00;98482.00;4710679;30;20049;-51
2021/07/30 07:48:29;;;;;;;20.50;14.13;;;;;;;21.01;100.00;98485.13;4710547;30;20049;-53
2021/07/30 07:50:54;;;;;;;30.63;16.33;;;;;;;21.15;100.00;98489.94;4715659;30;20044;-53
2021/07/30 07:53:20;;;;;;;16.92;11.77;;;;;;;21.26;100.00;98483.59;4717070;30;20057;-53
2021/07/30 07:55:46;;;;;;;23.58;15.18;;;;;;;21.31;100.00;98482.19;4710407;30;20050;-53
2021/07/30 07:58:12;;;;;;;23.02;15.88;;;;;;;21.42;100.00;98481.97;4715176;30;20060;-53
2021/07/30 08:00:39;;;;;;;22.27;13.57;;;;;;;21.47;100.00;98494.72;4716764;30;20045;-55
2021/07/30 08:03:05;;;;;;;22.92;13.88;;;;;;;21.51;100.00;98485.53;4713236;30;20517;-50
2021/07/30 08:05:30;;;;;;;21.05;14.13;;;;;;;21.67;100.00;98482.22;4709460;30;20060;-51
2021/07/30 08:07:57;;;;;;;29.92;19.48;;;;;;;21.89;100.00;98471.97;4712584;30;20412;-49
2021/07/30 08:10:22;;;;;;;22.45;15.77;;;;;;;22.11;100.00;98465.38;4713459;30;20144;-54
2021/07/30 08:13:06;;;;;;;23.70;15.57;;;;;;;22.36;100.00;98464.56;5079480;24;20051;31
2021/07/30 08:15:32;;;;;;;21.85;14.27;;;;;;;22.63;100.00;98460.06;4673233;30;20161;-49
2021/07/30 08:17:57;;;;;;;25.08;13.52;;;;;;;22.82;100.00;98459.84;4679586;30;20506;-52
2021/07/30 08:20:23;;;;;;;28.33;16.58;;;;;;;23.01;100.00;98461.41;4680552;30;20049;-53
2021/07/30 08:22:49;;;;;;;37.00;19.92;;;;;;;23.16;100.00;98462.44;4680972;30;20597;-53
2021/07/30 08:25:15;;;;;;;22.02;15.45;;;;;;;23.29;100.00;98440.78;4665236;30;20047;-53
2021/07/30 08:27:41;;;;;;;31.33;17.33;;;;;;;23.42;100.00;98441.09;4663520;30;20050;-52
2021/07/30 08:30:07;;;;;;;22.55;14.13;;;;;;;23.60;100.00;98444.50;4662170;30;20141;-49
2021/07/30 08:32:33;;;;;;;19.95;13.50;;;;;;;23.76;100.00;98448.97;4677918;30;20065;-52
2021/07/30 08:35:00;;;;;;;19.90;13.73;;;;;;;23.90;100.00;98446.47;4679749;30;20105;-50
2021/07/30 08:37:26;;;;;;;23.25;13.40;;;;;;;23.94;97.76;98450.44;4680978;30;20056;-51
2021/07/30 08:39:52;;;;;;;22.98;12.57;;;;;;;23.95;95.68;98465.38;4680354;30;20403;-49
2021/07/30 08:42:19;;;;;;;16.15;11.68;;;;;;;23.77;94.65;98456.75;4681367;30;20151;-49
2021/07/30 08:44:45;;;;;;;19.48;12.07;;;;;;;23.66;93.08;98457.06;4680188;30;20041;-49
2021/07/30 08:47:13;;;;;;;21.08;13.02;;;;;;;23.65;92.98;98458.09;4680240;30;20108;-50
2021/07/30 08:49:38;;;;;;;20.20;12.90;;;;;;;23.71;92.50;98453.94;4679544;30;20111;-52
2021/07/30 08:52:10;;;;;;;19.73;12.57;;;;;;;23.74;91.89;98465.06;4680854;30;20050;-53
2021/07/30 08:54:36;;;;;;;19.77;12.32;;;;;;;23.57;90.64;98448.28;5134024;24;20073;-54
2021/07/30 08:57:11;;;;;;;21.20;12.52;;;;;;;23.67;89.94;98461.38;4694248;30;20124;-49
2021/07/30 08:59:39;;;;;;;11.82;7.80;;;;;;;23.50;83.67;98455.22;4692563;30;20193;-55
2021/07/30 09:02:06;;;;;;;12.68;8.88;;;;;;;23.39;83.29;98458.19;4696977;30;20573;-57
2021/07/30 09:04:32;;;;;;;12.93;9.30;;;;;;;23.44;83.61;98452.41;4694934;30;20053;-58
2021/07/30 09:06:59;;;;;;;14.80;8.48;;;;;;;23.51;82.60;98453.41;4695185;30;20049;-61
2021/07/30 09:09:25;;;;;;;10.45;7.95;;;;;;;23.54;80.39;98453.09;4693812;30;20572;-57
2021/07/30 09:11:54;;;;;;;15.77;10.32;;;;;;;23.61;79.56;98457.56;4694439;30;20093;-54
2021/07/30 09:14:38;;;;;;;;;;;;;;;23.73;79.04;98462.56;4690715;30;20506;-53
2021/07/30 09:17:05;;;;;;;19.98;11.32;;;;;;;23.80;79.02;98464.41;4694878;30;19970;-53
2021/07/30 09:19:32;;;;;;;14.68;9.77;;;;;;;23.90;79.43;98459.75;4695024;30;20198;-52
2021/07/30 09:22:09;;;;;;;16.20;9.90;;;;;;;23.96;79.92;98468.88;4692945;30;20399;-55
2021/07/30 09:24:37;;;;;;;17.42;10.25;;;;;;;23.87;80.43;98465.38;5141094;24;21378;-55
2021/07/30 09:27:04;;;;;;;13.25;8.75;;;;;;;23.83;79.83;98465.88;4701382;30;20064;-56
2021/07/30 09:29:32;;;;;;;13.35;8.57;;;;;;;23.79;79.33;98459.25;4704852;30;20049;-52
2021/07/30 09:32:03;;;;;;;20.67;10.43;;;;;;;23.81;79.71;98455.44;4715153;30;20579;-54
2021/07/30 09:37:26;;;;;;;18.10;10.23;;;;;;;23.73;78.54;98458.06;4761089;24;20066;-53
2021/07/30 09:39:53;;;;;;;16.52;8.82;;;;;;;23.84;78.62;98454.25;4678585;30;20073;-51
2021/07/30 09:42:20;;;;;;;13.32;9.73;;;;;;;23.97;77.85;98470.53;4678893;30;20681;-53
2021/07/30 09:44:49;;;;;;;13.18;9.73;;;;;;;24.05;77.92;98467.84;4680425;30;20062;-52
2021/07/30 09:47:24;;;;;;;21.60;12.68;;;;;;;24.04;78.64;98472.34;4679569;30;20056;-69
2021/07/30 09:50:04;;;;;;;39.67;19.48;;;;;;;24.05;78.76;98467.84;4666462;30;20517;-62
2021/07/30 09:52:36;;;;;;;31.23;17.00;;;;;;;24.08;78.96;98457.72;4680427;30;20075;-62
2021/07/30 09:55:07;;;;;;;22.42;14.40;;;;;;;24.24;78.63;98456.06;4678896;30;20131;-62
2021/07/30 09:57:34;;;;;;;33.53;16.70;;;;;;;24.33;78.41;98455.06;4680692;30;20056;-62
2021/07/30 10:00:07;;;;;;;26.08;15.73;;;;;;;24.44;77.92;98457.38;4680984;30;20053;-62
2021/07/30 10:02:34;;;;;;;26.33;15.95;;;;;;;24.42;78.02;98454.88;4681015;30;20165;-62
2021/07/30 10:05:02;;;;;;;19.83;12.93;;;;;;;24.38;77.67;98444.75;4680377;30;20418;-63
2021/07/30 10:07:29;;;;;;;16.13;11.75;;;;;;;24.61;76.61;98444.84;4684366;30;20056;-63
2021/07/30 10:12:34;;;;;;;21.48;13.48;;;;;;;24.81;76.94;98438.94;4679748;30;20050;-61
2021/07/30 10:15:01;;;;;;;17.92;11.50;;;;;;;24.81;77.41;98436.28;4678283;30;20050;-62
2021/07/30 10:17:32;;;;;;;15.20;9.68;;;;;;;24.76;76.22;98433.31;5143409;24;20072;-61
2021/07/30 10:20:03;;;;;;;21.17;10.55;;;;;;;24.68;75.96;98433.38;4714129;30;20052;-62
2021/07/30 10:22:34;;;;;;;14.88;9.80;;;;;;;24.66;75.42;98430.03;4713781;30;20081;-61
2021/07/30 10:25:01;;;;;;;15.35;10.27;;;;;;;24.69;75.77;98434.19;4713210;30;20056;-62
2021/07/30 10:27:27;;;;;;;18.25;9.95;;;;;;;24.80;75.87;98431.16;4714789;30;20056;-61
2021/07/30 10:30:07;;;;;;;19.90;11.07;;;;;;;24.83;76.08;98420.16;4707962;30;20056;-64
2021/07/30 10:32:49;;;;;;;18.10;11.63;;;;;;;24.94;75.18;98424.31;4713085;30;20080;-64
2021/07/30 10:35:19;;;;;;;13.15;9.60;;;;;;;25.00;72.76;98423.63;4698494;30;20080;-63
2021/07/30 10:37:45;;;;;;;16.27;9.63;;;;;;;25.09;71.58;98419.91;4714643;30;20053;-65
2021/07/30 10:40:12;;;;;;;16.50;9.13;;;;;;;25.17;70.66;98418.03;4714865;30;20053;-63
2021/07/30 10:43:02;;;;;;;15.48;7.75;;;;;;;25.39;69.88;98412.88;4712995;30;20115;-64
2021/07/30 10:45:31;;;;;;;14.50;8.27;;;;;;;25.64;69.20;98411.72;4695934;30;20057;-65
2021/07/30 10:48:15;;;;;;;16.13;8.18;;;;;;;25.90;66.98;98395.34;4693688;30;20510;-65
2021/07/30 10:50:50;;;;;;;13.18;8.57;;;;;;;26.08;64.43;98396.66;4714849;30;20132;-63
2021/07/30 10:53:34;;;;;;;9.40;6.90;;;;;;;26.44;61.48;98396.78;4684294;30;20083;-64
2021/07/30 10:56:01;;;;;;;12.00;7.95;;;;;;;27.07;58.82;98391.84;4699287;30;20076;-66
2021/07/30 10:58:52;;;;;;;13.50;9.15;;;;;;;28.30;55.35;98385.13;4710509;30;20051;-63
2021/07/30 11:01:19;;;;;;;11.65;9.77;;;;;;;29.41;52.15;98387.44;4704676;30;20057;-63
2021/07/30 11:09:09;;;;;;;13.70;8.38;;;;;;;30.53;50.80;98378.50;4970336;24;20104;-62
2021/07/30 11:11:49;;;;;;;10.70;7.60;;;;;;;30.58;48.86;98368.78;4712963;30;20057;-63
2021/07/30 11:14:35;;;;;;;9.73;7.78;;;;;;;31.07;47.11;98370.03;4710627;30;20511;-61
2021/07/30 11:17:05;;;;;;;20.70;10.18;;;;;;;32.24;44.72;98363.97;4710939;30;20081;-60
2021/07/30 11:19:38;;;;;;;14.10;10.05;;;;;;;33.26;42.92;98355.03;4711431;30;20555;-62
2021/07/30 11:22:06;;;;;;;10.18;6.22;;;;;;;34.51;37.81;98358.28;4713394;30;20212;-63
2021/07/30 11:24:41;;;;;;;8.98;6.93;;;;;;;34.21;37.66;98357.63;4712706;30;20049;-61
2021/07/30 11:27:09;;;;;;;8.23;5.93;;;;;;;34.78;36.80;98350.47;4705099;30;20112;-60
2021/07/30 11:29:35;;;;;;;8.45;6.22;;;;;;;35.52;36.59;98345.91;5114733;24;20084;-61
2021/07/30 11:32:06;;;;;;;6.80;5.95;;;;;;;36.42;35.07;98348.38;4677200;30;20046;-59
2021/07/30 11:34:37;;;;;;;6.65;5.82;;;;;;;37.46;32.11;98349.00;4677885;30;20101;-59
2021/07/30 11:37:07;;;;;;;6.63;5.97;;;;;;;38.13;29.98;98335.69;4678469;30;20057;-60
2021/07/30 11:39:33;;;;;;;5.78;5.28;;;;;;;37.73;30.60;98341.66;4677638;30;20185;-60